createdAt,value
2019-04-30T00:00:08.457Z,148.32
2019-04-30T00:02:45.368Z,147.50
2019-04-30T00:05:15.186Z,146.28
2019-04-30T00:07:41.462Z,148.55
2019-04-30T00:10:08.915Z,146.87
2019-04-30T00:12:39.415Z,147.25
2019-04-30T00:15:06.237Z,146.53
2019-04-30T00:17:35.920Z,147.13
2019-04-30T00:20:07.471Z,148.85
2019-04-30T00:22:39.369Z,146.28
2019-04-30T00:25:05.267Z,147.87
2019-04-30T00:27:33.067Z,146.98
2019-04-30T00:30:04.836Z,148.02
2019-04-30T00:32:30.577Z,150.15
2019-04-30T00:34:57.984Z,147.75
2019-04-30T00:37:26.826Z,147.37
2019-04-30T00:39:55.506Z,148.70
2019-04-30T00:42:24.271Z,148.90
2019-04-30T00:44:52.070Z,147.07
2019-04-30T00:47:19.101Z,149.12
2019-04-30T00:49:47.230Z,147.17
2019-04-30T00:52:15.390Z,148.40
2019-04-30T00:54:42.746Z,148.00
2019-04-30T00:57:09.839Z,146.37
2019-04-30T00:59:39.867Z,147.87
2019-04-30T01:02:28.891Z,147.30
2019-04-30T01:04:52.236Z,147.15
2019-04-30T01:07:19.472Z,148.75
2019-04-30T01:09:49.743Z,148.17
2019-04-30T01:12:27.675Z,150.75
2019-04-30T01:14:46.784Z,147.65
2019-04-30T01:17:13.866Z,147.22
2019-04-30T01:19:46.068Z,148.20
2019-04-30T01:22:11.396Z,147.05
2019-04-30T01:24:41.119Z,147.90
2019-04-30T01:27:10.468Z,147.37
2019-04-30T01:29:40.860Z,146.75
2019-04-30T01:32:10.485Z,147.60
2019-04-30T01:34:36.939Z,149.55
2019-04-30T01:37:04.020Z,147.55
2019-04-30T01:39:31.701Z,148.80
2019-04-30T01:42:02.948Z,148.43
2019-04-30T01:44:29.521Z,147.85
2019-04-30T01:46:56.645Z,147.20
2019-04-30T01:49:25.696Z,147.60
2019-04-30T01:51:57.407Z,146.82
2019-04-30T01:54:24.313Z,148.10
2019-04-30T01:57:13.443Z,147.15
2019-04-30T02:00:20.319Z,148.60
2019-04-30T02:02:49.420Z,146.80
2019-04-30T02:05:16.439Z,147.78
2019-04-30T02:07:45.923Z,149.80
2019-04-30T02:10:12.931Z,148.68
2019-04-30T02:12:40.193Z,148.13
2019-04-30T02:15:09.351Z,147.55
2019-04-30T02:17:38.687Z,148.68
2019-04-30T02:20:06.580Z,147.50
2019-04-30T02:22:33.635Z,147.87
2019-04-30T02:25:00.690Z,147.57
2019-04-30T02:27:29.419Z,147.45
2019-04-30T02:29:59.487Z,147.35
2019-04-30T02:32:26.665Z,147.60
2019-04-30T02:35:13.471Z,147.05
2019-04-30T02:38:01.355Z,149.57
2019-04-30T02:40:31.339Z,146.98
2019-04-30T02:43:01.769Z,147.02
2019-04-30T02:45:30.011Z,148.25
2019-04-30T02:47:59.383Z,147.43
2019-04-30T02:50:29.380Z,148.07
2019-04-30T02:53:09.733Z,149.72
2019-04-30T02:55:42.400Z,149.38
2019-04-30T02:58:10.171Z,146.98
2019-04-30T03:00:39.412Z,147.13
2019-04-30T03:03:06.498Z,147.28
2019-04-30T03:05:33.541Z,147.15
2019-04-30T03:08:01.518Z,149.25
2019-04-30T03:10:30.318Z,149.02
2019-04-30T03:12:59.982Z,148.07
2019-04-30T03:15:29.911Z,148.68
2019-04-30T03:18:04.007Z,147.60
2019-04-30T03:20:56.278Z,147.98
2019-04-30T03:23:23.326Z,148.28
2019-04-30T03:25:50.703Z,146.45
2019-04-30T03:28:20.280Z,148.17
2019-04-30T03:30:56.233Z,149.85
2019-04-30T03:33:22.357Z,148.65
2019-04-30T03:35:48.242Z,147.13
2019-04-30T03:38:15.498Z,147.65
2019-04-30T03:40:42.540Z,147.70
2019-04-30T03:43:10.824Z,149.20
2019-04-30T03:45:40.195Z,147.13
2019-04-30T03:48:10.219Z,145.55
2019-04-30T03:50:50.239Z,148.07
2019-04-30T03:53:06.241Z,145.53
2019-04-30T03:55:33.615Z,146.82
2019-04-30T03:58:00.928Z,148.85
2019-04-30T04:00:50.051Z,146.18
2019-04-30T04:03:16.822Z,146.85
2019-04-30T04:06:14.277Z,149.07
2019-04-30T04:08:52.861Z,148.75
2019-04-30T04:11:23.888Z,150.18
2019-04-30T04:13:50.934Z,147.05
2019-04-30T04:16:19.478Z,146.00
2019-04-30T04:18:49.814Z,146.25
2019-04-30T04:21:17.155Z,146.30
2019-04-30T04:23:46.295Z,145.97
2019-04-30T04:26:13.549Z,146.20
2019-04-30T04:28:43.195Z,146.43
2019-04-30T04:31:12.774Z,146.70
2019-04-30T04:33:39.989Z,147.43
2019-04-30T04:36:09.166Z,147.98
2019-04-30T04:38:40.294Z,146.25
2019-04-30T04:41:10.100Z,146.60
2019-04-30T04:43:36.212Z,146.13
2019-04-30T04:46:05.723Z,146.60
2019-04-30T04:48:44.400Z,146.50
2019-04-30T04:51:27.875Z,146.77
2019-04-30T04:53:40.553Z,145.38
2019-04-30T04:56:10.104Z,147.02
2019-04-30T04:58:36.955Z,147.02
2019-04-30T05:01:04.138Z,149.70
2019-04-30T05:03:40.488Z,146.70
2019-04-30T05:06:39.507Z,148.38
2019-04-30T05:09:09.699Z,148.00
2019-04-30T05:11:39.543Z,146.60
2019-04-30T05:14:08.368Z,147.32
2019-04-30T05:16:35.712Z,146.95
2019-04-30T05:19:02.744Z,146.80
2019-04-30T05:21:41.729Z,147.80
2019-04-30T05:23:59.131Z,147.75
2019-04-30T05:26:26.363Z,149.70
2019-04-30T05:28:53.446Z,146.05
2019-04-30T05:31:22.343Z,149.05
2019-04-30T05:33:49.406Z,148.75
2019-04-30T05:36:19.195Z,148.82
2019-04-30T05:38:46.555Z,148.10
2019-04-30T05:41:13.684Z,149.87
2019-04-30T05:43:42.008Z,149.27
2019-04-30T05:46:11.019Z,147.57
2019-04-30T05:48:39.860Z,146.57
2019-04-30T05:51:08.990Z,148.50
2019-04-30T05:53:36.229Z,146.37
2019-04-30T05:56:03.374Z,147.60
2019-04-30T05:58:30.421Z,147.47
2019-04-30T06:00:59.722Z,146.50
2019-04-30T06:03:32.910Z,150.40
2019-04-30T06:05:58.940Z,147.45
2019-04-30T06:08:29.335Z,147.80
2019-04-30T06:11:05.989Z,146.62
2019-04-30T06:13:52.435Z,150.12
2019-04-30T06:16:21.521Z,148.38
2019-04-30T06:18:48.609Z,147.62
2019-04-30T06:21:15.641Z,145.55
2019-04-30T06:23:46.797Z,149.68
2019-04-30T06:26:14.057Z,150.30
2019-04-30T06:28:42.019Z,148.45
2019-04-30T06:31:09.202Z,149.07
2019-04-30T06:33:38.857Z,148.93
2019-04-30T06:36:08.555Z,149.45
2019-04-30T06:38:35.629Z,146.70
2019-04-30T06:41:05.684Z,148.95
2019-04-30T06:43:32.928Z,148.10
2019-04-30T06:46:00.167Z,148.13
2019-04-30T06:48:29.616Z,145.75
2019-04-30T06:50:56.623Z,147.87
2019-04-30T06:53:23.664Z,146.82
2019-04-30T06:55:50.715Z,149.23
2019-04-30T06:58:20.274Z,149.30
2019-04-30T07:00:46.822Z,147.60
2019-04-30T07:03:14.977Z,146.60
2019-04-30T07:05:44.049Z,146.22
2019-04-30T07:08:39.140Z,146.43
2019-04-30T07:11:19.407Z,146.53
2019-04-30T07:13:51.781Z,146.10
2019-04-30T07:16:18.978Z,145.82
2019-04-30T07:18:46.438Z,147.87
2019-04-30T07:21:15.777Z,146.18
2019-04-30T07:23:45.489Z,146.22
2019-04-30T07:26:22.742Z,145.53
2019-04-30T07:28:51.485Z,146.57
2019-04-30T07:31:14.655Z,146.60
2019-04-30T07:33:43.134Z,145.77
2019-04-30T07:36:10.458Z,145.90
2019-04-30T07:41:09.537Z,143.85
2019-04-30T07:43:39.393Z,144.60
2019-04-30T07:46:05.925Z,143.55
2019-04-30T07:48:32.973Z,146.50
2019-04-30T07:51:00.071Z,146.82
2019-04-30T07:53:28.229Z,145.92
2019-04-30T07:55:58.694Z,144.37
2019-04-30T07:58:25.814Z,145.12
2019-04-30T08:00:56.269Z,144.95
2019-04-30T08:03:50.128Z,145.43
2019-04-30T08:06:18.979Z,143.95
2019-04-30T08:08:50.714Z,145.35
2019-04-30T08:09:35.036Z,146.80
2019-04-30T08:11:25.643Z,143.10
2019-04-30T08:13:50.670Z,143.65
2019-04-30T08:16:21.752Z,147.17
2019-04-30T08:18:49.282Z,145.17
2019-04-30T08:21:18.977Z,145.43
2019-04-30T08:23:46.410Z,145.87
2019-04-30T08:26:13.505Z,146.65
2019-04-30T08:28:40.561Z,147.22
2019-04-30T08:31:09.743Z,147.70
2019-04-30T08:33:36.783Z,149.38
2019-04-30T08:36:04.136Z,148.07
2019-04-30T08:38:31.216Z,147.28
2019-04-30T08:41:00.779Z,147.65
2019-04-30T08:43:29.228Z,148.15
2019-04-30T08:46:00.095Z,146.72
2019-04-30T08:48:41.922Z,148.90
2019-04-30T08:50:59.162Z,147.43
2019-04-30T08:53:30.599Z,145.90
2019-04-30T08:55:55.917Z,147.95
2019-04-30T08:58:23.382Z,147.45
2019-04-30T09:00:50.452Z,147.30
2019-04-30T09:03:19.398Z,145.97
2019-04-30T09:06:03.416Z,147.15
2019-04-30T09:08:30.688Z,147.70
2019-04-30T09:10:59.578Z,148.05
2019-04-30T09:13:28.693Z,147.70
2019-04-30T09:15:55.741Z,150.25
2019-04-30T09:18:22.897Z,147.65
2019-04-30T09:20:50.222Z,145.95
2019-04-30T09:23:18.722Z,146.60
2019-04-30T09:25:45.979Z,147.98
2019-04-30T09:28:13.140Z,149.40
2019-04-30T09:30:40.170Z,146.35
2019-04-30T09:33:10.908Z,146.87
2019-04-30T09:35:36.371Z,147.15
2019-04-30T09:38:03.714Z,147.15
2019-04-30T09:40:32.551Z,146.77
2019-04-30T09:43:00.420Z,147.30
2019-04-30T09:45:28.540Z,146.00
2019-04-30T09:47:55.792Z,148.57
2019-04-30T09:50:24.778Z,148.25
2019-04-30T09:52:52.054Z,148.53
2019-04-30T09:55:19.459Z,146.15
2019-04-30T09:57:46.571Z,148.10
2019-04-30T10:00:14.148Z,146.13
2019-04-30T10:02:41.383Z,146.20
2019-04-30T10:05:10.233Z,146.35
2019-04-30T10:07:39.365Z,147.57
2019-04-30T10:10:09.414Z,147.02
2019-04-30T10:12:36.191Z,145.65
2019-04-30T10:15:03.622Z,146.72
2019-04-30T10:17:38.742Z,147.17
2019-04-30T10:20:08.792Z,146.72
2019-04-30T10:22:35.871Z,147.98
2019-04-30T10:25:04.511Z,147.00
2019-04-30T10:27:31.986Z,148.90
2019-04-30T10:29:59.460Z,148.70
2019-04-30T10:32:26.754Z,145.72
2019-04-30T10:34:53.821Z,149.85
2019-04-30T10:37:21.110Z,151.27
2019-04-30T10:39:48.961Z,147.65
2019-04-30T10:42:17.307Z,148.90
2019-04-30T10:44:44.350Z,145.75
2019-04-30T10:47:11.656Z,146.72
2019-04-30T10:49:39.034Z,146.85
2019-04-30T10:52:06.456Z,146.22
2019-04-30T10:54:34.663Z,147.75
2019-04-30T10:57:02.922Z,148.95
2019-04-30T10:59:30.006Z,148.47
2019-04-30T11:01:59.076Z,148.72
2019-04-30T11:04:26.058Z,149.20
2019-04-30T11:06:53.203Z,149.12
2019-04-30T11:09:20.382Z,149.30
2019-04-30T11:11:49.578Z,145.90
2019-04-30T11:14:16.771Z,147.13
2019-04-30T11:16:44.008Z,147.32
2019-04-30T11:19:11.594Z,146.70
2019-04-30T11:21:42.860Z,150.65
2019-04-30T11:24:10.421Z,147.43
2019-04-30T11:26:40.349Z,151.22
2019-04-30T11:29:06.844Z,148.62
2019-04-30T11:32:04.310Z,147.75
2019-04-30T11:34:31.702Z,149.02
2019-04-30T11:37:00.569Z,148.90
2019-04-30T11:39:29.635Z,147.25
2019-04-30T11:42:01.004Z,145.62
2019-04-30T11:44:44.769Z,147.68
2019-04-30T11:47:25.182Z,146.50
2019-04-30T11:49:52.556Z,144.90
2019-04-30T11:52:20.144Z,147.22
2019-04-30T11:54:51.607Z,146.10
2019-04-30T11:57:20.964Z,146.93
2019-04-30T11:59:48.341Z,148.50
2019-04-30T12:02:24.072Z,146.98
2019-04-30T12:04:51.265Z,146.02
2019-04-30T12:07:38.718Z,149.90
2019-04-30T12:10:25.943Z,149.23
2019-04-30T12:12:53.015Z,149.82
2019-04-30T12:15:20.172Z,149.55
2019-04-30T12:17:49.073Z,148.53
2019-04-30T12:20:20.805Z,146.37
2019-04-30T12:22:49.407Z,147.62
2019-04-30T12:25:18.584Z,147.05
2019-04-30T12:27:45.690Z,148.95
2019-04-30T12:30:14.586Z,147.37
2019-04-30T12:32:41.773Z,148.57
2019-04-30T12:35:11.737Z,146.80
2019-04-30T12:37:39.784Z,150.07
2019-04-30T12:40:25.855Z,148.72
2019-04-30T12:42:45.913Z,149.25
2019-04-30T12:46:02.269Z,149.57
2019-04-30T12:52:16.659Z,148.38
2019-04-30T12:54:58.005Z,149.05
2019-04-30T12:57:56.194Z,149.57
2019-04-30T13:00:20.704Z,148.82
2019-04-30T13:02:52.832Z,149.97
2019-04-30T13:08:20.755Z,149.35
2019-04-30T13:10:53.578Z,149.30
2019-04-30T13:13:21.547Z,147.05
2019-04-30T13:15:48.919Z,150.57
2019-04-30T13:18:22.543Z,149.42
2019-04-30T13:20:54.666Z,149.05
2019-04-30T13:23:24.680Z,150.47
2019-04-30T13:25:51.906Z,150.05
2019-04-30T13:28:22.643Z,150.32
2019-04-30T13:31:09.274Z,151.27
2019-04-30T13:33:46.005Z,151.65
2019-04-30T13:36:19.889Z,150.15
2019-04-30T13:39:06.182Z,151.27
2019-04-30T13:41:43.680Z,151.80
2019-04-30T13:44:17.019Z,151.63
2019-04-30T13:46:44.176Z,152.27
2019-04-30T13:49:11.262Z,151.37
2019-04-30T13:51:38.332Z,148.95
2019-04-30T13:54:05.483Z,149.30
2019-04-30T13:56:34.352Z,149.30
2019-04-30T13:59:01.474Z,150.03
2019-04-30T14:01:29.446Z,150.47
2019-04-30T14:04:19.165Z,153.53
2019-04-30T14:07:02.051Z,150.47
2019-04-30T14:09:30.248Z,152.72
2019-04-30T14:11:57.326Z,149.95
2019-04-30T14:14:24.603Z,151.25
2019-04-30T14:16:52.001Z,151.53
2019-04-30T14:19:19.623Z,152.17
2019-04-30T14:21:49.242Z,154.23
2019-04-30T14:24:16.678Z,153.68
2019-04-30T14:26:44.063Z,153.00
2019-04-30T14:29:11.286Z,154.15
2019-04-30T14:31:38.829Z,154.30
2019-04-30T14:34:05.910Z,152.97
2019-04-30T14:36:33.029Z,153.18
2019-04-30T14:39:13.538Z,154.85
2019-04-30T14:41:33.165Z,155.82
2019-04-30T14:44:07.879Z,152.57
2019-04-30T14:46:52.959Z,151.55
2019-04-30T14:49:59.743Z,151.18
2019-04-30T14:52:19.544Z,151.40
2019-04-30T14:55:08.872Z,151.18
2019-04-30T14:57:55.680Z,152.10
2019-04-30T15:00:44.918Z,151.15
2019-04-30T15:03:14.431Z,150.95
2019-04-30T15:05:48.494Z,148.87
2019-04-30T15:08:10.753Z,149.50
2019-04-30T15:10:37.910Z,149.47
2019-04-30T15:13:09.588Z,150.80
2019-04-30T15:15:39.292Z,153.75
2019-04-30T15:18:09.237Z,150.78
2019-04-30T15:20:36.570Z,148.90
2019-04-30T15:23:30.227Z,148.90
2019-04-30T15:25:59.153Z,149.77
2019-04-30T15:28:32.478Z,150.95
2019-04-30T15:31:26.434Z,150.57
2019-04-30T15:34:03.229Z,149.50
2019-04-30T15:36:35.759Z,152.25
2019-04-30T15:39:24.590Z,152.07
2019-04-30T15:41:54.102Z,152.60
2019-04-30T15:44:30.925Z,152.32
2019-04-30T15:47:08.929Z,151.47
2019-04-30T15:49:36.601Z,150.50
2019-04-30T15:52:04.426Z,149.80
2019-04-30T15:54:31.568Z,150.65
2019-04-30T15:57:00.411Z,147.93
2019-04-30T15:59:39.509Z,151.18
2019-04-30T16:02:21.946Z,149.62
2019-04-30T16:05:02.479Z,149.65
2019-04-30T16:07:32.475Z,150.57
2019-04-30T16:10:54.363Z,150.38
2019-04-30T16:13:33.682Z,150.30
2019-04-30T16:16:00.770Z,150.75
2019-04-30T16:18:34.498Z,148.30
2019-04-30T16:21:01.588Z,148.45
2019-04-30T16:23:28.939Z,150.32
2019-04-30T16:25:56.001Z,150.90
2019-04-30T16:28:23.096Z,150.50
2019-04-30T16:30:50.365Z,149.68
2019-04-30T16:33:20.481Z,153.47
2019-04-30T16:35:50.880Z,149.47
2019-04-30T16:38:20.950Z,150.42
2019-04-30T16:40:58.510Z,150.35
2019-04-30T16:44:19.169Z,148.53
2019-04-30T16:46:49.377Z,149.95
2019-04-30T16:49:18.537Z,150.10
2019-04-30T16:51:49.910Z,153.57
2019-04-30T16:54:18.706Z,150.27
2019-04-30T16:56:52.366Z,151.63
2019-04-30T16:59:23.250Z,152.43
2019-04-30T17:01:57.798Z,152.95
2019-04-30T17:04:49.390Z,150.57
2019-04-30T17:07:38.687Z,150.85
2019-04-30T17:10:18.885Z,147.70
2019-04-30T17:13:40.023Z,147.35
2019-04-30T17:16:11.324Z,149.32
2019-04-30T17:18:38.793Z,148.82
2019-04-30T17:21:09.756Z,149.05
2019-04-30T17:23:36.637Z,149.38
2019-04-30T17:26:03.755Z,147.40
2019-04-30T17:28:31.928Z,148.10
2019-04-30T17:30:59.014Z,146.70
2019-04-30T17:33:26.073Z,147.80
2019-04-30T17:35:53.156Z,146.32
2019-04-30T17:38:20.247Z,148.17
2019-04-30T17:40:49.678Z,147.05
2019-04-30T17:43:16.287Z,147.20
2019-04-30T17:45:52.878Z,148.97
2019-04-30T17:48:19.903Z,147.93
2019-04-30T17:50:47.070Z,150.20
2019-04-30T17:53:14.522Z,148.15
2019-04-30T17:55:50.029Z,149.77
2019-04-30T17:58:20.427Z,149.60
2019-04-30T18:00:51.248Z,149.07
2019-04-30T18:03:19.542Z,149.60
2019-04-30T18:05:49.182Z,148.80
2019-04-30T18:08:16.891Z,148.82
2019-04-30T18:10:44.930Z,149.95
2019-04-30T18:13:12.503Z,148.85
2019-04-30T18:15:39.564Z,148.22
2019-04-30T18:18:20.877Z,147.17
2019-04-30T18:21:05.029Z,146.75
2019-04-30T18:23:53.859Z,146.35
2019-04-30T18:27:01.352Z,145.38
2019-04-30T18:29:29.415Z,146.05
2019-04-30T18:31:56.481Z,146.37
2019-04-30T18:34:23.583Z,147.95
2019-04-30T18:36:51.277Z,146.32
2019-04-30T18:39:18.925Z,146.57
2019-04-30T18:41:46.468Z,148.25
2019-04-30T18:44:13.772Z,145.50
2019-04-30T18:46:41.050Z,146.20
2019-04-30T18:49:11.338Z,146.90
2019-04-30T18:51:42.121Z,146.50
2019-04-30T18:54:07.944Z,148.57
2019-04-30T18:56:35.183Z,145.15
2019-04-30T18:59:02.488Z,144.68
2019-04-30T19:01:29.571Z,145.45
2019-04-30T19:03:58.454Z,145.17
2019-04-30T19:06:26.437Z,145.75
2019-04-30T19:09:29.680Z,146.87
2019-04-30T19:12:08.533Z,146.37
2019-04-30T19:14:49.222Z,144.68
2019-04-30T19:17:49.466Z,145.22
2019-04-30T19:20:26.388Z,144.07
2019-04-30T19:22:53.644Z,145.35
2019-04-30T19:25:21.512Z,144.82
2019-04-30T19:27:48.746Z,145.38
2019-04-30T19:30:19.280Z,146.00
2019-04-30T19:32:49.208Z,145.32
2019-04-30T19:35:18.774Z,145.92
2019-04-30T19:37:46.209Z,147.65
2019-04-30T19:40:13.350Z,146.43
2019-04-30T19:42:40.709Z,147.82
2019-04-30T19:45:12.019Z,146.37
2019-04-30T19:47:39.069Z,144.30
2019-04-30T19:50:09.384Z,144.65
2019-04-30T19:52:38.629Z,146.15
2019-04-30T19:55:06.085Z,145.80
2019-04-30T19:57:41.068Z,146.53
2019-04-30T20:00:09.311Z,146.60
2019-04-30T20:02:40.403Z,146.60
2019-04-30T20:05:09.007Z,144.87
2019-04-30T20:07:36.561Z,144.22
2019-04-30T20:10:11.647Z,145.95
2019-04-30T20:12:40.288Z,144.90
2019-04-30T20:15:17.186Z,144.60
2019-04-30T20:17:39.552Z,147.15
2019-04-30T20:20:09.116Z,145.25
2019-04-30T20:22:38.835Z,144.10
2019-04-30T20:25:09.168Z,145.80
2019-04-30T20:27:39.675Z,144.37
2019-04-30T20:30:09.549Z,144.02
2019-04-30T20:32:37.054Z,143.62
2019-04-30T20:35:06.618Z,144.28
2019-04-30T20:37:55.390Z,146.32
2019-04-30T20:40:24.667Z,149.75
2019-04-30T20:42:53.447Z,144.57
2019-04-30T20:45:22.771Z,145.43
2019-04-30T20:47:50.384Z,145.02
2019-04-30T20:50:18.750Z,146.18
2019-04-30T20:52:46.000Z,146.07
2019-04-30T20:55:13.320Z,146.05
2019-04-30T20:57:40.479Z,144.50
2019-04-30T21:00:09.725Z,146.70
2019-04-30T21:02:38.833Z,144.95
2019-04-30T21:05:09.781Z,146.75
2019-04-30T21:07:41.804Z,145.47
2019-04-30T21:10:10.156Z,146.53
2019-04-30T21:12:41.162Z,146.87
2019-04-30T21:15:09.665Z,145.72
2019-04-30T21:17:38.672Z,144.65
2019-04-30T21:20:09.618Z,144.50
2019-04-30T21:22:38.831Z,143.47
2019-04-30T21:25:06.647Z,144.97
2019-04-30T21:27:33.799Z,144.40
2019-04-30T21:30:04.189Z,144.05
2019-04-30T21:33:11.531Z,143.90
2019-04-30T21:35:52.581Z,142.77
2019-04-30T21:38:19.818Z,142.85
2019-04-30T21:40:46.887Z,143.52
2019-04-30T21:43:15.786Z,144.72
2019-04-30T21:45:45.143Z,143.47
2019-04-30T21:48:12.200Z,142.62
2019-04-30T21:50:39.838Z,144.53
2019-04-30T21:53:09.836Z,143.78
2019-04-30T21:55:37.149Z,145.25
2019-04-30T21:58:09.378Z,144.77
2019-04-30T22:00:59.410Z,144.87
2019-04-30T22:03:39.790Z,144.20
2019-04-30T22:06:08.468Z,144.13
2019-04-30T22:08:38.687Z,144.53
2019-04-30T22:11:06.548Z,144.00
2019-04-30T22:13:36.161Z,144.72
2019-04-30T22:16:03.567Z,144.00
2019-04-30T22:18:30.647Z,145.30
2019-04-30T22:20:57.712Z,145.20
2019-04-30T22:23:24.783Z,144.87
2019-04-30T22:25:51.813Z,143.60
2019-04-30T22:28:19.247Z,144.50
2019-04-30T22:30:50.407Z,145.82
2019-04-30T22:33:22.692Z,144.93
2019-04-30T22:36:01.961Z,144.10
2019-04-30T22:38:32.623Z,145.77
2019-04-30T22:41:01.520Z,144.32
2019-04-30T22:43:28.566Z,144.70
2019-04-30T22:46:09.839Z,143.55
2019-04-30T22:48:37.359Z,143.97
2019-04-30T22:51:13.327Z,145.65
2019-04-30T22:53:40.686Z,144.97
2019-04-30T22:56:09.483Z,143.70
2019-04-30T22:58:36.914Z,143.95
2019-04-30T23:01:23.014Z,143.72
2019-04-30T23:03:53.209Z,144.53
2019-04-30T23:06:22.617Z,146.93
2019-04-30T23:08:50.408Z,143.78
2019-04-30T23:11:19.249Z,143.17
2019-04-30T23:13:46.361Z,144.28
2019-04-30T23:16:14.625Z,144.43
2019-04-30T23:18:43.796Z,143.43
2019-04-30T23:21:23.751Z,144.77
2019-04-30T23:23:53.605Z,144.13
2019-04-30T23:26:20.697Z,144.65
2019-04-30T23:28:47.831Z,143.52
2019-04-30T23:31:14.913Z,142.68
2019-04-30T23:33:41.974Z,142.62
2019-04-30T23:36:09.150Z,143.28
2019-04-30T23:38:38.666Z,143.70
2019-04-30T23:41:07.796Z,144.75
2019-04-30T23:43:34.880Z,142.90
2019-04-30T23:46:03.577Z,143.35
2019-04-30T23:48:30.755Z,143.72
2019-04-30T23:50:59.285Z,142.82
2019-04-30T23:53:26.351Z,143.17
2019-04-30T23:55:53.508Z,143.47
2019-04-30T23:58:20.585Z,145.10
